createdAt,value
2022-10-11T00:00:09.006Z,11.27
2022-10-11T00:02:35.525Z,11.32
2022-10-11T00:05:02.125Z,11.26
2022-10-11T00:07:28.653Z,11.28
2022-10-11T00:09:58.546Z,11.27
2022-10-11T00:12:25.093Z,11.24
2022-10-11T00:14:51.639Z,11.16
2022-10-11T00:17:18.231Z,11.03
2022-10-11T00:19:44.734Z,10.97
2022-10-11T00:22:11.189Z,10.93
2022-10-11T00:24:38.620Z,10.85
2022-10-11T00:27:05.077Z,10.82
2022-10-11T00:29:31.617Z,10.89
2022-10-11T00:31:58.108Z,10.86
2022-10-11T00:34:24.643Z,10.74
2022-10-11T00:36:51.111Z,10.79
2022-10-11T00:39:17.682Z,10.77
2022-10-11T00:41:47.801Z,10.75
2022-10-11T00:44:20.800Z,10.70
2022-10-11T00:46:56.039Z,10.66
2022-10-11T00:49:34.777Z,10.65
2022-10-11T00:52:31.862Z,10.64
2022-10-11T00:55:02.730Z,10.59
2022-10-11T00:57:34.822Z,10.67
2022-10-11T01:00:01.733Z,10.69
2022-10-11T01:02:30.227Z,10.81
2022-10-11T01:05:17.958Z,10.83
2022-10-11T01:07:44.618Z,10.83
2022-10-11T01:10:11.168Z,10.78
2022-10-11T01:12:48.155Z,10.80
2022-10-11T01:15:37.275Z,10.73
2022-10-11T01:18:14.471Z,10.70
2022-10-11T01:21:02.741Z,10.68
2022-10-11T01:23:35.124Z,10.64
2022-10-11T01:26:29.306Z,10.68
2022-10-11T01:29:26.390Z,10.70
2022-10-11T01:32:03.875Z,10.74
2022-10-11T01:34:49.236Z,10.67
2022-10-11T01:37:25.153Z,10.67
2022-10-11T01:40:14.371Z,10.68
2022-10-11T01:42:43.459Z,10.67
2022-10-11T01:45:15.075Z,10.70
2022-10-11T01:47:42.526Z,10.53
2022-10-11T01:50:42.510Z,10.52
2022-10-11T01:53:27.629Z,10.58
2022-10-11T01:56:31.801Z,10.50
2022-10-11T01:59:20.793Z,10.47
2022-10-11T02:02:08.072Z,10.52
2022-10-11T02:05:06.391Z,10.46
2022-10-11T02:07:45.419Z,10.47
2022-10-11T02:10:14.984Z,10.52
2022-10-11T02:13:03.149Z,10.42
2022-10-11T02:15:32.774Z,10.44
2022-10-11T02:18:03.845Z,10.38
2022-10-11T02:20:33.854Z,10.38
2022-10-11T02:23:07.523Z,10.34
2022-10-11T02:25:36.260Z,10.35
2022-10-11T02:28:09.212Z,10.28
2022-10-11T02:30:37.317Z,10.25
2022-10-11T02:33:08.182Z,10.30
2022-10-11T02:35:42.362Z,10.29
2022-10-11T02:38:16.008Z,10.30
2022-10-11T02:40:47.792Z,10.32
2022-10-11T02:43:30.294Z,10.35
2022-10-11T02:46:00.761Z,10.33
2022-10-11T02:48:29.305Z,10.28
2022-10-11T02:50:57.320Z,10.30
2022-10-11T02:53:25.841Z,10.29
2022-10-11T02:55:53.829Z,10.27
2022-10-11T02:58:21.218Z,10.30
2022-10-11T03:00:48.148Z,10.31
2022-10-11T03:03:14.682Z,10.29
2022-10-11T03:05:41.579Z,10.21
2022-10-11T03:08:09.966Z,10.19
2022-10-11T03:10:37.269Z,10.18
2022-10-11T03:13:04.266Z,10.11
2022-10-11T03:15:31.145Z,10.08
2022-10-11T03:17:57.683Z,10.07
2022-10-11T03:20:25.339Z,10.01
2022-10-11T03:22:51.972Z,9.99
2022-10-11T03:25:18.535Z,10.02
2022-10-11T03:27:44.995Z,9.89
2022-10-11T03:30:14.215Z,9.85
2022-10-11T03:32:44.480Z,9.93
2022-10-11T03:35:11.022Z,9.93
2022-10-11T03:37:37.554Z,9.90
2022-10-11T03:40:06.524Z,9.88
2022-10-11T03:42:33.035Z,9.87
2022-10-11T03:45:01.667Z,9.75
2022-10-11T03:47:28.190Z,9.55
2022-10-11T03:49:54.629Z,9.38
2022-10-11T03:52:21.227Z,9.39
2022-10-11T03:54:48.013Z,9.52
2022-10-11T03:57:14.895Z,9.63
2022-10-11T03:59:41.344Z,9.63
2022-10-11T04:02:07.943Z,9.69
2022-10-11T04:04:34.866Z,9.74
2022-10-11T04:07:01.312Z,9.69
2022-10-11T04:09:27.964Z,9.70
2022-10-11T04:11:54.424Z,9.71
2022-10-11T04:14:20.879Z,9.66
2022-10-11T04:16:47.386Z,9.43
2022-10-11T04:19:13.934Z,9.32
2022-10-11T04:21:43.989Z,9.18
2022-10-11T04:24:13.481Z,9.23
2022-10-11T04:26:40.011Z,9.32
2022-10-11T04:29:06.531Z,9.41
2022-10-11T04:31:33.020Z,9.46
2022-10-11T04:33:59.540Z,9.52
2022-10-11T04:36:26.072Z,9.50
2022-10-11T04:38:52.778Z,9.51
2022-10-11T04:41:19.255Z,9.44
2022-10-11T04:43:45.769Z,9.42
2022-10-11T04:46:12.327Z,9.43
2022-10-11T04:48:38.815Z,9.44
2022-10-11T04:51:05.531Z,9.45
2022-10-11T04:53:32.211Z,9.42
2022-10-11T04:56:08.850Z,9.38
2022-10-11T04:58:35.798Z,9.43
2022-10-11T05:01:02.355Z,9.49
2022-10-11T05:03:29.426Z,9.46
2022-10-11T05:05:56.021Z,9.52
2022-10-11T05:08:25.578Z,9.49
2022-10-11T05:11:00.241Z,9.51
2022-10-11T05:13:28.421Z,9.45
2022-10-11T05:15:55.015Z,9.49
2022-10-11T05:18:22.037Z,9.46
2022-10-11T05:20:48.693Z,9.45
2022-10-11T05:23:15.697Z,9.49
2022-10-11T05:25:42.249Z,9.46
2022-10-11T05:28:08.781Z,9.47
2022-10-11T05:30:35.434Z,9.42
2022-10-11T05:33:02.366Z,9.41
2022-10-11T05:35:28.815Z,9.45
2022-10-11T05:37:55.284Z,9.25
2022-10-11T05:40:21.745Z,8.94
2022-10-11T05:42:48.249Z,9.00
2022-10-11T05:45:14.775Z,9.03
2022-10-11T05:47:41.331Z,9.12
2022-10-11T05:50:08.084Z,8.97
2022-10-11T05:52:34.612Z,8.97
2022-10-11T05:55:01.080Z,9.02
2022-10-11T05:57:27.550Z,9.08
2022-10-11T05:59:54.002Z,9.11
2022-10-11T06:02:20.455Z,9.24
2022-10-11T06:04:47.021Z,9.26
2022-10-11T06:07:13.485Z,9.20
2022-10-11T06:09:40.037Z,9.20
2022-10-11T06:12:06.585Z,9.16
2022-10-11T06:14:33.195Z,9.19
2022-10-11T06:16:59.699Z,9.24
2022-10-11T06:19:26.242Z,9.28
2022-10-11T06:21:52.732Z,9.24
2022-10-11T06:24:19.365Z,9.23
2022-10-11T06:26:45.831Z,9.28
2022-10-11T06:29:12.319Z,9.33
2022-10-11T06:31:38.883Z,9.37
2022-10-11T06:34:05.346Z,9.40
2022-10-11T06:36:34.925Z,9.48
2022-10-11T06:39:01.553Z,9.60
2022-10-11T06:41:29.833Z,9.61
2022-10-11T06:43:57.177Z,9.67
2022-10-11T06:46:26.590Z,9.73
2022-10-11T06:48:54.047Z,9.78
2022-10-11T06:51:22.493Z,9.80
2022-10-11T06:53:51.703Z,9.78
2022-10-11T06:56:19.211Z,9.79
2022-10-11T06:58:46.089Z,9.77
2022-10-11T07:01:16.286Z,9.91
2022-10-11T07:03:42.838Z,9.96
2022-10-11T07:06:11.885Z,9.88
2022-10-11T07:08:38.724Z,9.93
2022-10-11T07:11:08.278Z,10.05
2022-10-11T07:13:35.168Z,10.21
2022-10-11T07:16:07.493Z,10.24
2022-10-11T07:18:34.532Z,10.28
2022-10-11T07:21:06.364Z,10.33
2022-10-11T07:23:33.361Z,10.40
2022-10-11T07:26:00.043Z,10.49
2022-10-11T07:28:28.796Z,10.48
2022-10-11T07:30:55.473Z,10.54
2022-10-11T07:33:22.026Z,10.58
2022-10-11T07:35:49.630Z,10.61
2022-10-11T07:38:16.853Z,10.69
2022-10-11T07:40:45.416Z,10.74
2022-10-11T07:43:13.116Z,10.80
2022-10-11T07:45:41.174Z,10.84
2022-10-11T07:48:08.364Z,10.88
2022-10-11T07:50:35.561Z,10.93
2022-10-11T07:53:02.098Z,10.97
2022-10-11T07:55:30.849Z,10.99
2022-10-11T07:57:57.692Z,11.00
2022-10-11T08:00:24.308Z,11.08
2022-10-11T08:02:50.808Z,11.15
2022-10-11T08:05:17.547Z,11.21
2022-10-11T08:07:44.326Z,11.27
2022-10-11T08:10:10.888Z,11.28
2022-10-11T08:12:37.420Z,11.32
2022-10-11T08:15:04.172Z,11.36
2022-10-11T08:17:30.700Z,11.36
2022-10-11T08:19:58.173Z,11.42
2022-10-11T08:22:24.629Z,11.55
2022-10-11T08:24:54.296Z,11.62
2022-10-11T08:27:20.789Z,11.70
2022-10-11T08:29:47.353Z,11.80
2022-10-11T08:32:13.829Z,11.87
2022-10-11T08:34:40.360Z,11.96
2022-10-11T08:37:06.814Z,12.08
2022-10-11T08:39:33.305Z,12.18
2022-10-11T08:42:16.981Z,12.25
2022-10-11T08:45:10.105Z,12.31
2022-10-11T08:47:43.101Z,12.47
2022-10-11T08:50:19.768Z,12.64
2022-10-11T08:52:57.195Z,12.78
2022-10-11T08:55:31.916Z,12.78
2022-10-11T08:57:58.883Z,12.85
2022-10-11T09:00:30.702Z,12.85
2022-10-11T09:03:18.835Z,12.94
2022-10-11T09:06:17.460Z,13.04
2022-10-11T09:09:02.909Z,13.40
2022-10-11T09:11:43.957Z,13.57
2022-10-11T09:14:57.987Z,13.51
2022-10-11T09:17:54.767Z,13.36
2022-10-11T09:20:37.689Z,13.34
2022-10-11T09:23:19.374Z,13.35
2022-10-11T09:25:51.868Z,13.44
2022-10-11T09:28:24.585Z,13.60
2022-10-11T09:30:54.775Z,13.82
2022-10-11T09:33:35.367Z,13.90
2022-10-11T09:36:12.132Z,13.82
2022-10-11T09:39:27.281Z,13.96
2022-10-11T09:41:56.690Z,13.71
2022-10-11T09:44:29.291Z,13.64
2022-10-11T09:46:57.265Z,13.82
2022-10-11T09:49:42.520Z,13.90
2022-10-11T09:52:16.570Z,13.93
2022-10-11T09:54:50.570Z,13.92
2022-10-11T09:57:26.480Z,13.75
2022-10-11T10:00:24.621Z,13.67
2022-10-11T10:02:59.621Z,13.72
2022-10-11T10:05:33.849Z,13.88
2022-10-11T10:08:09.596Z,13.97
2022-10-11T10:10:49.427Z,14.02
2022-10-11T10:13:29.797Z,13.97
2022-10-11T10:16:01.257Z,14.12
2022-10-11T10:18:35.238Z,14.19
2022-10-11T10:21:03.018Z,14.13
2022-10-11T10:23:35.227Z,14.10
2022-10-11T10:26:12.735Z,14.08
2022-10-11T10:28:39.969Z,14.03
2022-10-11T10:31:22.672Z,14.02
2022-10-11T10:33:52.994Z,14.12
2022-10-11T10:36:26.936Z,14.15
2022-10-11T10:39:10.083Z,14.26
2022-10-11T10:41:36.968Z,14.26
2022-10-11T10:44:03.780Z,14.47
2022-10-11T10:47:02.420Z,14.36
2022-10-11T10:49:54.424Z,14.33
2022-10-11T10:52:43.656Z,14.29
2022-10-11T10:55:22.487Z,14.40
2022-10-11T10:58:00.810Z,14.46
2022-10-11T11:00:36.845Z,14.40
2022-10-11T11:03:09.890Z,14.31
2022-10-11T11:05:48.633Z,14.35
2022-10-11T11:08:21.147Z,14.30
2022-10-11T11:10:56.869Z,14.21
2022-10-11T11:13:26.241Z,14.33
2022-10-11T11:16:15.200Z,14.40
2022-10-11T11:18:58.465Z,14.58
2022-10-11T11:21:43.604Z,14.97
2022-10-11T11:24:25.289Z,14.57
2022-10-11T11:27:01.577Z,14.50
2022-10-11T11:29:28.092Z,14.07
2022-10-11T11:32:20.076Z,14.00
2022-10-11T11:34:52.582Z,14.26
2022-10-11T11:37:26.197Z,14.71
2022-10-11T11:40:06.709Z,14.89
2022-10-11T11:42:41.882Z,14.72
2022-10-11T11:45:22.801Z,15.13
2022-10-11T11:48:02.667Z,15.18
2022-10-11T11:50:37.360Z,15.23
2022-10-11T11:53:14.738Z,15.29
2022-10-11T11:55:49.361Z,15.09
2022-10-11T11:58:37.239Z,14.68
2022-10-11T12:01:07.095Z,14.49
2022-10-11T12:03:41.881Z,14.26
2022-10-11T12:06:17.412Z,14.31
2022-10-11T12:08:48.492Z,14.24
2022-10-11T12:11:30.580Z,14.36
2022-10-11T12:14:03.737Z,14.38
2022-10-11T12:16:31.057Z,14.34
2022-10-11T12:18:57.651Z,14.42
2022-10-11T12:21:44.103Z,14.40
2022-10-11T12:24:19.588Z,14.38
2022-10-11T12:26:48.445Z,14.47
2022-10-11T12:29:42.850Z,14.40
2022-10-11T12:32:11.290Z,14.34
2022-10-11T12:37:19.782Z,14.37
2022-10-11T12:39:59.470Z,14.31
2022-10-11T12:42:35.867Z,14.27
2022-10-11T12:45:14.549Z,14.18
2022-10-11T12:47:46.753Z,14.14
2022-10-11T12:50:22.859Z,14.16
2022-10-11T12:53:04.179Z,14.07
2022-10-11T12:55:50.114Z,13.97
2022-10-11T12:58:26.427Z,14.01
2022-10-11T13:00:52.855Z,13.95
2022-10-11T13:03:36.818Z,13.91
2022-10-11T13:06:17.984Z,13.83
2022-10-11T13:08:49.956Z,13.81
2022-10-11T13:11:21.649Z,13.89
2022-10-11T13:13:57.875Z,13.98
2022-10-11T13:16:41.690Z,13.96
2022-10-11T13:19:13.288Z,13.94
2022-10-11T13:21:40.380Z,14.06
2022-10-11T13:24:13.598Z,14.03
2022-10-11T13:26:40.933Z,13.99
2022-10-11T13:29:39.971Z,13.95
2022-10-11T13:32:13.520Z,13.91
2022-10-11T13:34:41.722Z,14.00
2022-10-11T13:37:21.439Z,13.92
2022-10-11T13:39:51.139Z,13.87
2022-10-11T13:42:19.962Z,13.87
2022-10-11T13:44:47.394Z,13.91
2022-10-11T13:47:17.121Z,13.98
2022-10-11T13:49:53.464Z,13.98
2022-10-11T13:52:20.163Z,13.97
2022-10-11T13:55:04.792Z,14.07
2022-10-11T13:57:40.226Z,14.04
2022-10-11T14:00:31.665Z,13.98
2022-10-11T14:03:12.704Z,13.88
2022-10-11T14:06:00.229Z,13.81
2022-10-11T14:08:38.902Z,13.93
2022-10-11T14:11:07.076Z,13.91
2022-10-11T14:13:37.490Z,13.77
2022-10-11T14:16:12.611Z,13.70
2022-10-11T14:18:51.958Z,13.65
2022-10-11T14:21:48.441Z,13.67
2022-10-11T14:24:16.279Z,13.58
2022-10-11T14:26:48.172Z,13.57
2022-10-11T14:29:24.452Z,13.55
2022-10-11T14:31:52.074Z,13.52
2022-10-11T14:34:21.334Z,13.56
2022-10-11T14:36:48.664Z,13.63
2022-10-11T14:39:18.282Z,13.62
2022-10-11T14:41:46.358Z,13.64
2022-10-11T14:44:13.665Z,13.66
2022-10-11T14:46:40.938Z,13.61
2022-10-11T14:49:28.566Z,13.55
2022-10-11T14:51:57.537Z,13.49
2022-10-11T14:54:26.527Z,13.49
2022-10-11T14:56:55.294Z,13.54
2022-10-11T14:59:25.133Z,13.56
2022-10-11T15:53:12.522Z,12.10
2022-10-11T15:55:42.570Z,12.17
2022-10-11T15:58:16.553Z,12.06
2022-10-11T16:00:44.399Z,12.07
2022-10-11T16:03:12.849Z,11.98
2022-10-11T16:05:40.340Z,11.88
2022-10-11T16:08:07.642Z,11.80
2022-10-11T16:10:34.195Z,11.67
2022-10-11T16:13:02.111Z,11.70
2022-10-11T16:15:29.102Z,11.72
2022-10-11T16:17:55.629Z,11.69
2022-10-11T16:20:24.546Z,11.64
2022-10-11T16:22:53.717Z,11.56
2022-10-11T16:25:21.378Z,11.50
2022-10-11T16:27:48.057Z,11.49
2022-10-11T16:30:16.428Z,11.49
2022-10-11T16:32:44.412Z,11.41
2022-10-11T16:35:12.658Z,11.42
2022-10-11T16:37:39.265Z,11.43
2022-10-11T16:40:07.793Z,11.39
2022-10-11T16:42:34.372Z,11.33
2022-10-11T16:45:00.923Z,11.33
2022-10-11T16:47:27.470Z,11.29
2022-10-11T16:49:54.072Z,11.36
2022-10-11T16:52:20.595Z,11.40
2022-10-11T16:54:47.512Z,11.37
2022-10-11T16:57:15.893Z,11.33
2022-10-11T16:59:42.793Z,11.41
2022-10-11T17:02:17.082Z,11.45
2022-10-11T17:04:44.569Z,11.40
2022-10-11T17:07:14.382Z,11.32
2022-10-11T17:09:44.193Z,11.30
2022-10-11T17:12:13.145Z,11.27
2022-10-11T17:14:40.861Z,11.24
2022-10-11T17:17:08.840Z,11.24
2022-10-11T17:19:40.201Z,11.22
2022-10-11T17:22:13.273Z,11.16
2022-10-11T17:24:39.900Z,11.14
2022-10-11T17:27:07.129Z,11.09
2022-10-11T17:29:34.549Z,11.00
2022-10-11T17:32:01.382Z,10.97
2022-10-11T17:34:27.862Z,10.96
2022-10-11T17:36:54.377Z,10.97
2022-10-11T17:39:22.377Z,10.95
2022-10-11T17:41:49.545Z,10.90
2022-10-11T17:44:19.189Z,10.87
2022-10-11T17:46:47.069Z,10.85
2022-10-11T17:49:14.215Z,10.81
2022-10-11T17:51:41.722Z,10.73
2022-10-11T17:54:12.391Z,10.71
2022-10-11T17:56:41.102Z,10.70
2022-10-11T17:59:14.318Z,10.64
2022-10-11T18:01:40.920Z,10.64
2022-10-11T18:04:13.420Z,10.61
2022-10-11T18:06:39.926Z,10.60
2022-10-11T18:09:06.742Z,10.60
2022-10-11T18:11:33.385Z,10.55
2022-10-11T18:14:00.319Z,10.54
2022-10-11T18:16:28.892Z,10.47
2022-10-11T18:18:57.457Z,10.45
2022-10-11T18:21:33.688Z,10.43
2022-10-11T18:24:03.053Z,10.41
2022-10-11T18:26:30.986Z,10.42
2022-10-11T18:28:58.643Z,10.34
2022-10-11T18:31:27.866Z,10.40
2022-10-11T18:33:55.077Z,10.42
2022-10-11T18:36:24.513Z,10.35
2022-10-11T18:39:00.269Z,10.23
2022-10-11T18:41:32.886Z,10.13
2022-10-11T18:44:05.194Z,10.16
2022-10-11T18:46:32.318Z,10.17
2022-10-11T18:49:01.752Z,10.21
2022-10-11T18:51:39.885Z,10.15
2022-10-11T18:54:08.597Z,10.11
2022-10-11T18:56:36.821Z,10.16
2022-10-11T18:59:04.662Z,10.19
2022-10-11T19:01:38.268Z,10.10
2022-10-11T19:04:06.692Z,9.98
2022-10-11T19:06:39.798Z,9.92
2022-10-11T19:09:10.232Z,9.86
2022-10-11T19:11:39.942Z,9.86
2022-10-11T19:14:15.171Z,9.93
2022-10-11T19:16:45.849Z,9.87
2022-10-11T19:19:12.849Z,9.89
2022-10-11T19:21:39.978Z,9.87
2022-10-11T19:24:07.020Z,9.94
2022-10-11T19:26:49.424Z,9.84
2022-10-11T19:29:19.781Z,9.76
2022-10-11T19:31:53.760Z,9.71
2022-10-11T19:34:21.878Z,9.65
2022-10-11T19:36:54.089Z,9.61
2022-10-11T19:39:22.090Z,9.63
2022-10-11T19:41:49.037Z,9.58
2022-10-11T19:44:17.450Z,9.57
2022-10-11T19:46:52.730Z,9.52
2022-10-11T19:49:25.435Z,9.49
2022-10-11T19:51:53.490Z,9.48
2022-10-11T19:54:20.315Z,9.45
2022-10-11T19:56:49.687Z,9.48
2022-10-11T19:59:16.762Z,9.43
2022-10-11T20:01:51.066Z,9.52
2022-10-11T20:04:46.940Z,9.46
2022-10-11T20:07:05.415Z,9.43
2022-10-11T20:09:31.888Z,9.44
2022-10-11T20:11:58.970Z,9.49
2022-10-11T20:14:25.793Z,9.47
2022-10-11T20:16:53.417Z,9.37
2022-10-11T20:19:27.905Z,9.36
2022-10-11T20:21:56.947Z,9.40
2022-10-11T20:24:23.540Z,9.38
2022-10-11T20:26:50.243Z,9.34
2022-10-11T20:29:16.891Z,9.29
2022-10-11T20:31:43.541Z,9.29
2022-10-11T20:34:10.397Z,9.29
2022-10-11T20:36:37.059Z,9.25
2022-10-11T20:39:04.967Z,9.22
2022-10-11T20:41:34.619Z,9.16
2022-10-11T20:44:02.159Z,9.19
2022-10-11T20:46:32.593Z,9.25
2022-10-11T20:49:04.887Z,9.28
2022-10-11T20:51:33.758Z,9.28
2022-10-11T20:54:01.904Z,9.27
2022-10-11T20:56:29.678Z,9.16
2022-10-11T20:58:57.243Z,9.16
2022-10-11T21:01:32.440Z,9.16
2022-10-11T21:04:02.890Z,9.12
2022-10-11T21:06:31.126Z,9.10
2022-10-11T21:08:59.070Z,9.07
2022-10-11T21:11:31.121Z,9.06
2022-10-11T21:14:00.018Z,9.05
2022-10-11T21:16:27.572Z,9.02
2022-10-11T21:18:56.080Z,8.99
2022-10-11T21:21:24.004Z,8.97
2022-10-11T21:23:54.930Z,9.01
2022-10-11T21:26:22.057Z,9.01
2022-10-11T21:28:48.643Z,9.01
2022-10-11T21:31:17.597Z,9.00
2022-10-11T21:33:44.990Z,9.02
2022-10-11T21:36:14.297Z,8.98
2022-10-11T21:38:41.536Z,8.94
2022-10-11T21:41:11.406Z,8.87
2022-10-11T21:43:38.466Z,8.89
2022-10-11T21:46:12.873Z,8.84
2022-10-11T21:48:39.594Z,8.90
2022-10-11T21:51:06.505Z,8.95
2022-10-11T21:53:33.742Z,8.94
2022-10-11T21:56:01.211Z,8.91
2022-10-11T21:58:28.177Z,8.98
2022-10-11T22:00:55.003Z,8.99
2022-10-11T22:03:28.820Z,8.99
2022-10-11T22:05:55.322Z,9.00
2022-10-11T22:08:22.824Z,9.01
2022-10-11T22:10:55.774Z,9.01
2022-10-11T22:13:22.452Z,8.90
2022-10-11T22:15:49.145Z,8.84
2022-10-11T22:18:16.376Z,8.91
2022-10-11T22:20:43.251Z,8.92
2022-10-11T22:23:09.861Z,8.88
2022-10-11T22:25:37.898Z,8.83
2022-10-11T22:28:05.225Z,8.87
2022-10-11T22:30:34.260Z,8.91
2022-10-11T22:33:00.816Z,8.90
2022-10-11T22:35:27.272Z,8.88
2022-10-11T22:37:53.755Z,8.93
2022-10-11T22:40:20.887Z,8.93
2022-10-11T22:42:47.497Z,8.89
2022-10-11T22:45:13.940Z,8.89
2022-10-11T22:47:40.414Z,8.82
2022-10-11T22:50:07.076Z,8.83
2022-10-11T22:52:33.612Z,8.87
2022-10-11T22:55:00.120Z,8.88
2022-10-11T22:57:26.595Z,8.86
2022-10-11T22:59:54.963Z,8.81
2022-10-11T23:02:21.415Z,8.73
2022-10-11T23:04:47.911Z,8.74
2022-10-11T23:07:14.371Z,8.77
2022-10-11T23:09:40.878Z,8.68
2022-10-11T23:12:07.679Z,8.74
2022-10-11T23:14:34.158Z,8.72
2022-10-11T23:17:00.608Z,8.76
2022-10-11T23:19:27.133Z,8.77
2022-10-11T23:21:53.577Z,8.71
2022-10-11T23:24:20.080Z,8.67
2022-10-11T23:26:49.667Z,8.64
2022-10-11T23:29:16.594Z,8.61
2022-10-11T23:31:43.060Z,8.61
2022-10-11T23:34:09.542Z,8.65
2022-10-11T23:36:35.995Z,8.66
2022-10-11T23:39:02.512Z,8.59
2022-10-11T23:41:29.704Z,8.60
2022-10-11T23:43:57.976Z,8.65
2022-10-11T23:46:24.894Z,8.61
2022-10-11T23:48:51.349Z,8.56
2022-10-11T23:51:17.836Z,8.38
2022-10-11T23:53:44.350Z,8.37
2022-10-11T23:56:14.463Z,8.36
2022-10-11T23:58:45.469Z,8.51
